In Rescue
 
Open Full Screen Window  High Contrast Mode
Wind Gusting 00 knots
04
January 22, 2020 6:03 PM CST
Present Weather: Haze
Weather Information
Wind Direction
  160 °
Wind Speed
  04 kt (5 mph)
Wind Gust
  00 kt (0 mph)
Altimeter
29.87 in
Visibility
3 SM
Temperature
02° C
36° F
Dewpoint
-02° C
28° F
Humidity
75%
1hr Rain Fall
00.00 in.
24hr Rain Fall
00.13 in.
Sky Condition
Overcast @ 600 ft
IFR

METAR KCBG 230003Z AUTO 16004KT 3SM HZ OVC006 02/M02 A2987 RMK AO2

FAA Disclaimer: The data displayed is for advisory purposes only and is not to be used for flight planning or operations.